AXM110 OSDI-OLBA
Flight info
| Callsign | AXM110 |
|---|---|
| Flight time | N/A |
| Altitude | 20000 |
| Route | LOSAR6D LOSAR L513 BUSRA BRAV1C |
| Aircraft | A333/H-V/N |
Departure
| Time | 2026-04-16 15:12 |
|---|---|
| Airport | Damascus International Airport (OSDI) |
Arrival
| Time | N/A |
|---|---|
| Airport | Beirut Rafic Hariri International Airport (OLBA) |
| Time | Latitude | Longitude | Altitude | Speed | Heading |
|---|---|---|---|---|---|
| 2026-04-16 14:49 | 33.41184 | 36.51472 | 2022 ft | 0 kts | 227° |
| 2026-04-16 15:00 | 33.41185 | 36.51473 | 2022 ft | 1 kts | 227° |
| 2026-04-16 15:00 | 33.41200 | 36.51494 | 2022 ft | 1 kts | 228° |
| 2026-04-16 15:01 | 33.41208 | 36.51504 | 2023 ft | 1 kts | 232° |
| 2026-04-16 15:01 | 33.41214 | 36.51512 | 2023 ft | 1 kts | 242° |
| 2026-04-16 15:01 | 33.41217 | 36.51523 | 2023 ft | 1 kts | 259° |
| 2026-04-16 15:01 | 33.41219 | 36.51533 | 2023 ft | 1 kts | 274° |
| 2026-04-16 15:02 | 33.41218 | 36.51541 | 2023 ft | 1 kts | 288° |
| 2026-04-16 15:02 | 33.41215 | 36.51550 | 2023 ft | 1 kts | 302° |
| 2026-04-16 15:02 | 33.41211 | 36.51558 | 2023 ft | 0 kts | 314° |
| 2026-04-16 15:02 | 33.41206 | 36.51564 | 2022 ft | 0 kts | 317° |
| 2026-04-16 15:04 | 33.41207 | 36.51563 | 2023 ft | 0 kts | 317° |
| 2026-04-16 15:04 | 33.41212 | 36.51557 | 2023 ft | 1 kts | 318° |
| 2026-04-16 15:05 | 33.41224 | 36.51545 | 2023 ft | 2 kts | 319° |
| 2026-04-16 15:05 | 33.41242 | 36.51526 | 2023 ft | 3 kts | 319° |
| 2026-04-16 15:05 | 33.41266 | 36.51501 | 2024 ft | 4 kts | 321° |
| 2026-04-16 15:05 | 33.41295 | 36.51473 | 2024 ft | 5 kts | 322° |
| 2026-04-16 15:06 | 33.41332 | 36.51440 | 2025 ft | 7 kts | 323° |
| 2026-04-16 15:06 | 33.41376 | 36.51404 | 2026 ft | 8 kts | 334° |
| 2026-04-16 15:06 | 33.41441 | 36.51397 | 2025 ft | 11 kts | 4° |
| 2026-04-16 15:06 | 33.41536 | 36.51406 | 2022 ft | 16 kts | 4° |
| 2026-04-16 15:07 | 33.41672 | 36.51405 | 2016 ft | 22 kts | 346° |
| 2026-04-16 15:07 | 33.41809 | 36.51290 | 2011 ft | 26 kts | 319° |
| 2026-04-16 15:07 | 33.41874 | 36.51222 | 2009 ft | 0 kts | 322° |
| 2026-04-16 15:07 | 33.41909 | 36.51214 | 2009 ft | 17 kts | 6° |
| 2026-04-16 15:08 | 33.42006 | 36.51359 | 2009 ft | 23 kts | 62° |
| 2026-04-16 15:08 | 33.42110 | 36.51527 | 2008 ft | 27 kts | 48° |
| 2026-04-16 15:08 | 33.42243 | 36.51703 | 2007 ft | 29 kts | 49° |
| 2026-04-16 15:08 | 33.42380 | 36.51887 | 2006 ft | 29 kts | 49° |
| 2026-04-16 15:09 | 33.42514 | 36.52066 | 2004 ft | 28 kts | 49° |
| 2026-04-16 15:09 | 33.42646 | 36.52246 | 2003 ft | 28 kts | 48° |
| 2026-04-16 15:09 | 33.42773 | 36.52418 | 2002 ft | 27 kts | 49° |
| 2026-04-16 15:09 | 33.42894 | 36.52586 | 2002 ft | 26 kts | 50° |
| 2026-04-16 15:10 | 33.43016 | 36.52746 | 2002 ft | 26 kts | 49° |
| 2026-04-16 15:10 | 33.43138 | 36.52912 | 2003 ft | 27 kts | 48° |
| 2026-04-16 15:10 | 33.43269 | 36.53087 | 2003 ft | 28 kts | 49° |
| 2026-04-16 15:10 | 33.43401 | 36.53265 | 2004 ft | 22 kts | 49° |
| 2026-04-16 15:11 | 33.43521 | 36.53371 | 2003 ft | 22 kts | 349° |
| 2026-04-16 15:11 | 33.43583 | 36.53220 | 2004 ft | 22 kts | 246° |
| 2026-04-16 15:11 | 33.43482 | 36.53074 | 2005 ft | 23 kts | 229° |
| 2026-04-16 15:11 | 33.43337 | 36.52878 | 2003 ft | 53 kts | 229° |
| 2026-04-16 15:12 | 33.42934 | 36.52338 | 2003 ft | 119 kts | 230° |
| 2026-04-16 15:12 | 33.42242 | 36.51407 | 2010 ft | 174 kts | 229° |
| 2026-04-16 15:12 | 33.41343 | 36.50201 | 2089 ft | 210 kts | 230° |
| 2026-04-16 15:12 | 33.40510 | 36.48839 | 2907 ft | 200 kts | 252° |
| 2026-04-16 15:13 | 33.40545 | 36.47218 | 3612 ft | 206 kts | 296° |
| 2026-04-16 15:13 | 33.41521 | 36.45961 | 4233 ft | 215 kts | 334° |
| 2026-04-16 15:13 | 33.43019 | 36.45587 | 4841 ft | 229 kts | 7° |
| 2026-04-16 15:13 | 33.44584 | 36.45844 | 5344 ft | 229 kts | 9° |
| 2026-04-16 15:14 | 33.46167 | 36.46125 | 5852 ft | 230 kts | 13° |
| 2026-04-16 15:14 | 33.47731 | 36.46548 | 6317 ft | 234 kts | 15° |
| 2026-04-16 15:14 | 33.49385 | 36.46991 | 6609 ft | 248 kts | 13° |
| 2026-04-16 15:14 | 33.51128 | 36.47434 | 6866 ft | 267 kts | 13° |
| 2026-04-16 15:15 | 33.53030 | 36.47913 | 7271 ft | 284 kts | 13° |
| 2026-04-16 15:15 | 33.54993 | 36.48406 | 7860 ft | 292 kts | 12° |
| 2026-04-16 15:15 | 33.57038 | 36.48920 | 8618 ft | 294 kts | 12° |
| 2026-04-16 15:15 | 33.59070 | 36.49432 | 9355 ft | 296 kts | 12° |
| 2026-04-16 15:16 | 33.61103 | 36.49941 | 10076 ft | 298 kts | 11° |
| 2026-04-16 15:16 | 33.63222 | 36.50258 | 10561 ft | 312 kts | 5° |
| 2026-04-16 15:16 | 33.65455 | 36.50546 | 10945 ft | 330 kts | 6° |
| 2026-04-16 15:16 | 33.67798 | 36.50853 | 11314 ft | 347 kts | 6° |
| 2026-04-16 15:17 | 33.70230 | 36.51173 | 11914 ft | 353 kts | 6° |
| 2026-04-16 15:17 | 33.72683 | 36.51496 | 12737 ft | 355 kts | 5° |
| 2026-04-16 15:17 | 33.75171 | 36.51825 | 13432 ft | 358 kts | 6° |
| 2026-04-16 15:17 | 33.77655 | 36.52153 | 14063 ft | 362 kts | 5° |
| 2026-04-16 15:18 | 33.80195 | 36.52489 | 14738 ft | 365 kts | 5° |
| 2026-04-16 15:18 | 33.82733 | 36.52824 | 15394 ft | 368 kts | 5° |
| 2026-04-16 15:18 | 33.85284 | 36.53161 | 16095 ft | 370 kts | 5° |
| 2026-04-16 15:18 | 33.87853 | 36.53480 | 16749 ft | 372 kts | 4° |
| 2026-04-16 15:19 | 33.90467 | 36.53804 | 17349 ft | 375 kts | 5° |
| 2026-04-16 15:19 | 33.93106 | 36.54134 | 17953 ft | 379 kts | 4° |
| 2026-04-16 15:19 | 33.95755 | 36.54464 | 18547 ft | 382 kts | 4° |
| 2026-04-16 15:19 | 33.98448 | 36.54797 | 19099 ft | 385 kts | 4° |
| 2026-04-16 15:20 | 34.01165 | 36.55135 | 19691 ft | 388 kts | 4° |
| 2026-04-16 15:20 | 34.03880 | 36.55475 | 20169 ft | 390 kts | 4° |
| 2026-04-16 15:20 | 34.06629 | 36.55817 | 20014 ft | 388 kts | 4° |
| 2026-04-16 15:20 | 34.09286 | 36.56148 | 20088 ft | 382 kts | 4° |
| 2026-04-16 15:21 | 34.12004 | 36.56486 | 20094 ft | 383 kts | 4° |
| 2026-04-16 15:21 | 34.14685 | 36.56822 | 20087 ft | 383 kts | 4° |
| 2026-04-16 15:21 | 34.17416 | 36.57162 | 20087 ft | 383 kts | 4° |
| 2026-04-16 15:21 | 34.20122 | 36.57374 | 20027 ft | 380 kts | 355° |
| 2026-04-16 15:22 | 34.22730 | 36.56644 | 20037 ft | 374 kts | 335° |
| 2026-04-16 15:22 | 34.24972 | 36.54845 | 20025 ft | 373 kts | 315° |
| 2026-04-16 15:22 | 34.26474 | 36.52343 | 20042 ft | 371 kts | 296° |
| 2026-04-16 15:22 | 34.27186 | 36.49295 | 20031 ft | 373 kts | 276° |
| 2026-04-16 15:23 | 34.27195 | 36.46156 | 20040 ft | 371 kts | 270° |
| 2026-04-16 15:23 | 34.27222 | 36.43025 | 20079 ft | 374 kts | 272° |
| 2026-04-16 15:23 | 34.27303 | 36.39872 | 20066 ft | 371 kts | 273° |
| 2026-04-16 15:23 | 34.27403 | 36.36783 | 20059 ft | 373 kts | 273° |
| 2026-04-16 15:24 | 34.27514 | 36.33596 | 20069 ft | 373 kts | 273° |
| 2026-04-16 15:24 | 34.27627 | 36.30471 | 20073 ft | 373 kts | 273° |
| 2026-04-16 15:24 | 34.27740 | 36.27341 | 20082 ft | 371 kts | 273° |
| 2026-04-16 15:24 | 34.27853 | 36.24218 | 20114 ft | 371 kts | 273° |
| 2026-04-16 15:25 | 34.27967 | 36.21073 | 20106 ft | 371 kts | 273° |
| 2026-04-16 15:25 | 34.28080 | 36.17935 | 20091 ft | 372 kts | 273° |
| 2026-04-16 15:25 | 34.28191 | 36.14797 | 20069 ft | 371 kts | 273° |
| 2026-04-16 15:25 | 34.28302 | 36.11659 | 20079 ft | 371 kts | 273° |
| 2026-04-16 15:26 | 34.28411 | 36.08561 | 20088 ft | 372 kts | 273° |
| 2026-04-16 15:26 | 34.28521 | 36.05430 | 20058 ft | 371 kts | 273° |
| 2026-04-16 15:26 | 34.28629 | 36.02295 | 20073 ft | 373 kts | 273° |
| 2026-04-16 15:26 | 34.28746 | 35.99150 | 20052 ft | 372 kts | 274° |
| 2026-04-16 15:27 | 34.28892 | 35.96018 | 20044 ft | 373 kts | 274° |
| 2026-04-16 15:27 | 34.29034 | 35.92916 | 20008 ft | 373 kts | 274° |
| 2026-04-16 15:27 | 34.29176 | 35.89792 | 19999 ft | 371 kts | 274° |
| 2026-04-16 15:27 | 34.29316 | 35.86672 | 20026 ft | 374 kts | 274° |
| 2026-04-16 15:28 | 34.29457 | 35.83522 | 19970 ft | 373 kts | 274° |
| 2026-04-16 15:28 | 34.29596 | 35.80400 | 19928 ft | 374 kts | 274° |
| 2026-04-16 15:28 | 34.29736 | 35.77257 | 19944 ft | 373 kts | 274° |
| 2026-04-16 15:28 | 34.29872 | 35.74142 | 19870 ft | 372 kts | 274° |
| 2026-04-16 15:29 | 34.29731 | 35.71029 | 19889 ft | 374 kts | 259° |
| 2026-04-16 15:29 | 34.28748 | 35.68118 | 19895 ft | 379 kts | 240° |
| 2026-04-16 15:29 | 34.27066 | 35.65638 | 19891 ft | 380 kts | 230° |
| 2026-04-16 15:29 | 34.25329 | 35.63209 | 19858 ft | 380 kts | 232° |
| 2026-04-16 15:30 | 34.23572 | 35.60701 | 19064 ft | 387 kts | 232° |
| 2026-04-16 15:30 | 34.21789 | 35.58146 | 17784 ft | 403 kts | 231° |
| 2026-04-16 15:30 | 34.19924 | 35.55479 | 16736 ft | 408 kts | 231° |
| 2026-04-16 15:30 | 34.18082 | 35.52848 | 16124 ft | 404 kts | 231° |
| 2026-04-16 15:31 | 34.16239 | 35.50216 | 15511 ft | 397 kts | 231° |
| 2026-04-16 15:31 | 34.14450 | 35.47661 | 14875 ft | 394 kts | 231° |
| 2026-04-16 15:31 | 34.12637 | 35.45074 | 14210 ft | 390 kts | 231° |
| 2026-04-16 15:31 | 34.10856 | 35.42536 | 13562 ft | 387 kts | 230° |
| 2026-04-16 15:32 | 34.09079 | 35.40006 | 12927 ft | 382 kts | 230° |
| 2026-04-16 15:32 | 34.07341 | 35.37530 | 12371 ft | 378 kts | 230° |
| 2026-04-16 15:32 | 34.05609 | 35.35067 | 11721 ft | 373 kts | 230° |
| 2026-04-16 15:32 | 34.03937 | 35.32691 | 11202 ft | 366 kts | 229° |
| 2026-04-16 15:33 | 34.02263 | 35.30312 | 10770 ft | 359 kts | 229° |
| 2026-04-16 15:33 | 34.00637 | 35.28005 | 10373 ft | 354 kts | 229° |
| 2026-04-16 15:33 | 33.99038 | 35.25736 | 10207 ft | 339 kts | 229° |
| 2026-04-16 15:33 | 33.97509 | 35.23569 | 10058 ft | 324 kts | 229° |
| 2026-04-16 15:34 | 33.96053 | 35.21505 | 9840 ft | 305 kts | 229° |
| 2026-04-16 15:34 | 33.94688 | 35.19572 | 9814 ft | 292 kts | 229° |
| 2026-04-16 15:34 | 33.93350 | 35.17713 | 9453 ft | 291 kts | 224° |
| 2026-04-16 15:34 | 33.91649 | 35.16420 | 9154 ft | 284 kts | 198° |
| 2026-04-16 15:35 | 33.89711 | 35.16122 | 8874 ft | 280 kts | 174° |
| 2026-04-16 15:35 | 33.87832 | 35.16490 | 8653 ft | 276 kts | 171° |
| 2026-04-16 15:35 | 33.85896 | 35.16853 | 8376 ft | 274 kts | 171° |
| 2026-04-16 15:35 | 33.84034 | 35.17205 | 8122 ft | 270 kts | 171° |
| 2026-04-16 15:36 | 33.82169 | 35.17556 | 7882 ft | 267 kts | 171° |
| 2026-04-16 15:36 | 33.80325 | 35.17903 | 7626 ft | 265 kts | 171° |
| 2026-04-16 15:36 | 33.78522 | 35.18243 | 7383 ft | 263 kts | 171° |
| 2026-04-16 15:36 | 33.76717 | 35.18582 | 7105 ft | 259 kts | 171° |
| 2026-04-16 15:37 | 33.74922 | 35.18920 | 6889 ft | 256 kts | 170° |
| 2026-04-16 15:37 | 33.73149 | 35.19253 | 6607 ft | 253 kts | 170° |
| 2026-04-16 15:37 | 33.71418 | 35.19579 | 6395 ft | 249 kts | 170° |
| 2026-04-16 15:37 | 33.69695 | 35.19903 | 6163 ft | 247 kts | 170° |
| 2026-04-16 15:38 | 33.67982 | 35.20224 | 5951 ft | 245 kts | 170° |
| 2026-04-16 15:38 | 33.66304 | 35.20539 | 5712 ft | 244 kts | 170° |
| 2026-04-16 15:38 | 33.64611 | 35.20856 | 5462 ft | 244 kts | 170° |
| 2026-04-16 15:38 | 33.62919 | 35.21174 | 5192 ft | 242 kts | 169° |
| 2026-04-16 15:39 | 33.61279 | 35.21640 | 4926 ft | 241 kts | 152° |
| 2026-04-16 15:39 | 33.60018 | 35.22920 | 4658 ft | 239 kts | 123° |
| 2026-04-16 15:39 | 33.59437 | 35.24804 | 4391 ft | 237 kts | 100° |
| 2026-04-16 15:39 | 33.59116 | 35.26702 | 4351 ft | 227 kts | 102° |
| 2026-04-16 15:40 | 33.58775 | 35.28516 | 4334 ft | 216 kts | 102° |
| 2026-04-16 15:40 | 33.58543 | 35.30260 | 4259 ft | 207 kts | 85° |
| 2026-04-16 15:40 | 33.59042 | 35.31836 | 4001 ft | 199 kts | 50° |
| 2026-04-16 15:40 | 33.60127 | 35.32839 | 3792 ft | 190 kts | 34° |
| 2026-04-16 15:41 | 33.61220 | 35.33737 | 3888 ft | 178 kts | 37° |
| 2026-04-16 15:41 | 33.62242 | 35.34604 | 3539 ft | 186 kts | 37° |
| 2026-04-16 15:41 | 33.63340 | 35.35442 | 3470 ft | 185 kts | 35° |
| 2026-04-16 15:41 | 33.64439 | 35.36280 | 3406 ft | 188 kts | 35° |
| 2026-04-16 15:42 | 33.65546 | 35.37125 | 3348 ft | 172 kts | 36° |
| 2026-04-16 15:42 | 33.66570 | 35.37915 | 3089 ft | 166 kts | 36° |
| 2026-04-16 15:42 | 33.67554 | 35.38668 | 2886 ft | 161 kts | 35° |
| 2026-04-16 15:42 | 33.68471 | 35.39372 | 2681 ft | 150 kts | 35° |
| 2026-04-16 15:43 | 33.69360 | 35.40055 | 2472 ft | 146 kts | 35° |
| 2026-04-16 15:43 | 33.70211 | 35.40708 | 2296 ft | 144 kts | 34° |
| 2026-04-16 15:43 | 33.71059 | 35.41360 | 2117 ft | 142 kts | 34° |
| 2026-04-16 15:43 | 33.71907 | 35.42011 | 1936 ft | 142 kts | 34° |
| 2026-04-16 15:44 | 33.72757 | 35.42665 | 1753 ft | 141 kts | 34° |
| 2026-04-16 15:44 | 33.73611 | 35.43321 | 1569 ft | 145 kts | 35° |
| 2026-04-16 15:44 | 33.74454 | 35.43968 | 1391 ft | 142 kts | 36° |
| 2026-04-16 15:44 | 33.75279 | 35.44604 | 1204 ft | 138 kts | 36° |
| 2026-04-16 15:45 | 33.76116 | 35.45247 | 1017 ft | 138 kts | 36° |
| 2026-04-16 15:45 | 33.76940 | 35.45884 | 839 ft | 139 kts | 36° |
| 2026-04-16 15:45 | 33.77755 | 35.46510 | 660 ft | 137 kts | 35° |
| 2026-04-16 15:45 | 33.78571 | 35.47138 | 479 ft | 137 kts | 35° |
| 2026-04-16 15:46 | 33.79379 | 35.47763 | 294 ft | 138 kts | 38° |
| 2026-04-16 15:46 | 33.80206 | 35.48388 | 117 ft | 137 kts | 38° |
| 2026-04-16 15:46 | 33.80961 | 35.48988 | 82 ft | 114 kts | 32° |